Date,TemperatureHighF,TemperatureAvgF,TemperatureLowF,DewpointHighF,DewpointAvgF,DewpointLowF,HumidityHigh,HumidityAvg,HumidityLow,PressureMaxIn,PressureMinIn,WindSpeedMaxMPH,WindSpeedAvgMPH,GustSpeedMaxMPH,PrecipitationSumIn
2013-4-1,80.8,64.8,46.6,22.2,14.7,1.7,30,15,8,30.03,29.69,14,5,27,0.00
2013-4-2,76.6,61.7,42.8,25.4,14.4,-1.1,41,18,8,30.04,29.69,13,5,27,0.00
2013-4-3,76.8,63.0,46.2,24.1,11.5,0.9,28,14,8,30.08,29.82,12,5,21,0.00
2013-4-4,81.1,66.9,49.8,20.5,12.4,0.5,27,13,8,30.13,29.81,13,5,21,0.00
2013-4-5,82.9,73.7,59.7,25.7,14.9,4.6,20,11,8,30.03,29.72,16,6,34,0.00
2013-4-6,80.1,66.9,51.4,26.9,19.2,8.2,37,18,8,30.03,29.81,15,5,30,0.00
2013-4-7,80.8,65.4,47.3,27.9,19.3,7.2,43,20,8,29.98,29.69,14,6,26,0.00
2013-4-8,73.0,63.9,53.2,35.0,26.7,10.1,43,26,9,29.86,29.54,37,22,67,0.04
2013-4-9,56.7,49.8,43.5,39.5,28.3,6.9,81,46,14,30.15,29.81,30,10,55,0.04
2013-4-10,66.2,52.0,34.2,29.3,21.3,13.3,63,33,16,30.32,30.09,13,6,23,0.00
2013-4-11,78.3,58.7,37.0,28.2,21.2,10.1,50,26,11,30.38,29.94,10,4,18,0.00
2013-4-12,74.8,61.5,46.2,27.0,19.5,8.6,37,21,11,30.17,29.94,12,6,24,0.00
2013-4-13,80.1,66.5,46.9,28.6,21.8,12.5,42,20,11,30.22,29.87,12,6,26,0.00
2013-4-14,77.4,65.7,50.0,32.2,24.9,14.8,41,22,11,30.14,29.78,17,7,34,0.00
2013-4-15,79.0,68.4,59.0,38.0,25.2,8.3,38,21,12,30.09,29.87,21,12,35,0.00
2013-4-16,78.1,66.7,55.8,42.9,28.7,14.6,49,26,11,30.13,29.84,22,13,36,0.00
2013-4-17,66.9,58.5,44.4,39.3,17.6,-5.9,45,21,11,30.20,29.93,27,13,53,0.00
2013-4-18,65.8,53.1,38.1,21.1,7.5,-6.6,23,16,11,30.34,30.17,10,5,18,0.00
2013-4-19,75.6,57.1,37.4,27.1,14.0,-3.6,25,18,12,30.48,30.10,14,5,23,0.00
2013-4-20,81.7,62.7,38.5,30.5,14.4,-6.1,24,15,11,30.32,30.03,12,6,24,0.00
2013-4-21,86.9,69.5,50.2,36.3,19.9,1.0,24,15,11,30.38,30.00,10,4,22,0.00
2013-4-22,86.9,69.9,47.3,33.7,20.4,2.1,24,16,11,30.31,29.85,12,5,23,0.00
2013-4-23,83.1,68.6,47.1,30.7,18.0,0.8,25,15,11,30.17,29.84,12,5,28,0.00
2013-4-24,83.8,69.8,48.6,31.3,21.6,8.4,34,17,11,30.22,29.91,14,7,24,0.00
2013-4-25,78.4,70.2,56.5,31.5,18.8,7.7,25,14,11,30.16,29.95,23,14,49,0.00
2013-4-26,82.9,65.2,43.2,30.6,21.2,9.6,44,21,11,30.30,30.08,9,4,18,0.00
2013-4-27,84.6,71.0,51.8,31.5,20.1,10.3,30,15,11,30.29,30.02,8,4,17,0.00
2013-4-28,87.6,74.0,55.9,33.0,21.9,7.4,24,14,11,30.14,29.91,8,4,16,0.00
2013-4-29,89.4,75.7,58.1,32.7,22.9,8.2,20,14,11,30.13,29.84,12,4,21,0.00
2013-4-30,87.8,75.1,54.5,32.3,23.7,10.7,24,15,11,30.08,29.87,16,6,30,0.00